sensor_id;sensor_type;location;lat;lon;timestamp;P1;durP1;ratioP1;P2;durP2;ratioP2
25015;SDS011;13029;46.286;7.488;2023-02-04T00:02:20;6.20;;;2.78;;
25015;SDS011;13029;46.286;7.488;2023-02-04T00:04:45;4.10;;;3.00;;
25015;SDS011;13029;46.286;7.488;2023-02-04T00:07:10;5.20;;;3.10;;
25015;SDS011;13029;46.286;7.488;2023-02-04T00:09:36;4.60;;;3.10;;
25015;SDS011;13029;46.286;7.488;2023-02-04T00:12:01;5.90;;;3.13;;
25015;SDS011;13029;46.286;7.488;2023-02-04T00:14:26;6.43;;;2.78;;
25015;SDS011;13029;46.286;7.488;2023-02-04T00:16:52;5.07;;;2.88;;
25015;SDS011;13029;46.286;7.488;2023-02-04T00:19:17;9.30;;;3.45;;
25015;SDS011;13029;46.286;7.488;2023-02-04T00:21:42;5.15;;;3.00;;
25015;SDS011;13029;46.286;7.488;2023-02-04T00:24:08;6.38;;;3.22;;
25015;SDS011;13029;46.286;7.488;2023-02-04T00:26:33;5.30;;;2.90;;
25015;SDS011;13029;46.286;7.488;2023-02-04T00:28:59;7.70;;;3.33;;
25015;SDS011;13029;46.286;7.488;2023-02-04T00:31:24;5.53;;;2.90;;
25015;SDS011;13029;46.286;7.488;2023-02-04T00:33:49;5.70;;;2.90;;
25015;SDS011;13029;46.286;7.488;2023-02-04T00:36:15;5.53;;;3.35;;
25015;SDS011;13029;46.286;7.488;2023-02-04T00:38:40;8.15;;;3.25;;
25015;SDS011;13029;46.286;7.488;2023-02-04T00:41:05;5.72;;;2.95;;
25015;SDS011;13029;46.286;7.488;2023-02-04T00:43:31;5.13;;;3.17;;
25015;SDS011;13029;46.286;7.488;2023-02-04T00:45:56;6.75;;;3.45;;
25015;SDS011;13029;46.286;7.488;2023-02-04T00:48:21;4.40;;;2.80;;
25015;SDS011;13029;46.286;7.488;2023-02-04T00:50:47;4.35;;;2.92;;
25015;SDS011;13029;46.286;7.488;2023-02-04T00:53:12;6.63;;;3.50;;
25015;SDS011;13029;46.286;7.488;2023-02-04T00:55:37;5.53;;;3.20;;
25015;SDS011;13029;46.286;7.488;2023-02-04T00:58:03;5.35;;;3.63;;
25015;SDS011;13029;46.286;7.488;2023-02-04T01:00:28;7.80;;;3.08;;
25015;SDS011;13029;46.286;7.488;2023-02-04T01:02:53;5.75;;;3.00;;
25015;SDS011;13029;46.286;7.488;2023-02-04T01:05:18;6.80;;;2.90;;
25015;SDS011;13029;46.286;7.488;2023-02-04T01:07:44;6.85;;;3.25;;
25015;SDS011;13029;46.286;7.488;2023-02-04T01:10:09;5.18;;;2.97;;
25015;SDS011;13029;46.286;7.488;2023-02-04T01:12:35;4.30;;;3.15;;
25015;SDS011;13029;46.286;7.488;2023-02-04T01:15:00;6.47;;;3.40;;
25015;SDS011;13029;46.286;7.488;2023-02-04T01:17:26;6.85;;;3.20;;
25015;SDS011;13029;46.286;7.488;2023-02-04T01:19:51;4.45;;;2.97;;
25015;SDS011;13029;46.286;7.488;2023-02-04T01:22:16;6.00;;;3.40;;
25015;SDS011;13029;46.286;7.488;2023-02-04T01:24:41;3.60;;;2.83;;
25015;SDS011;13029;46.286;7.488;2023-02-04T01:27:07;5.60;;;3.35;;
25015;SDS011;13029;46.286;7.488;2023-02-04T01:29:32;6.53;;;3.45;;
25015;SDS011;13029;46.286;7.488;2023-02-04T01:31:58;6.40;;;3.13;;
25015;SDS011;13029;46.286;7.488;2023-02-04T01:34:23;5.47;;;3.03;;
25015;SDS011;13029;46.286;7.488;2023-02-04T01:36:49;7.05;;;3.15;;
25015;SDS011;13029;46.286;7.488;2023-02-04T01:39:15;5.75;;;3.22;;
25015;SDS011;13029;46.286;7.488;2023-02-04T01:41:40;6.90;;;3.13;;
25015;SDS011;13029;46.286;7.488;2023-02-04T01:44:06;8.25;;;3.05;;
25015;SDS011;13029;46.286;7.488;2023-02-04T01:46:31;5.25;;;3.10;;
25015;SDS011;13029;46.286;7.488;2023-02-04T01:48:59;4.68;;;2.85;;
25015;SDS011;13029;46.286;7.488;2023-02-04T01:51:25;3.83;;;2.65;;
25015;SDS011;13029;46.286;7.488;2023-02-04T01:53:52;4.72;;;2.88;;
25015;SDS011;13029;46.286;7.488;2023-02-04T01:56:20;6.97;;;2.92;;
25015;SDS011;13029;46.286;7.488;2023-02-04T01:58:47;5.35;;;2.90;;
25015;SDS011;13029;46.286;7.488;2023-02-04T02:01:13;3.92;;;2.72;;
25015;SDS011;13029;46.286;7.488;2023-02-04T02:03:40;5.72;;;2.63;;
25015;SDS011;13029;46.286;7.488;2023-02-04T02:06:06;8.07;;;3.05;;
25015;SDS011;13029;46.286;7.488;2023-02-04T02:08:34;6.10;;;2.78;;
25015;SDS011;13029;46.286;7.488;2023-02-04T02:11:02;4.88;;;2.90;;
25015;SDS011;13029;46.286;7.488;2023-02-04T02:13:27;5.32;;;2.58;;
25015;SDS011;13029;46.286;7.488;2023-02-04T02:15:53;4.68;;;2.60;;
25015;SDS011;13029;46.286;7.488;2023-02-04T02:18:18;5.13;;;2.40;;
25015;SDS011;13029;46.286;7.488;2023-02-04T02:20:43;4.03;;;1.85;;
25015;SDS011;13029;46.286;7.488;2023-02-04T02:25:43;3.33;;;2.20;;
25015;SDS011;13029;46.286;7.488;2023-02-04T02:28:10;4.07;;;1.90;;
25015;SDS011;13029;46.286;7.488;2023-02-04T02:30:37;3.17;;;1.90;;
25015;SDS011;13029;46.286;7.488;2023-02-04T02:33:03;2.97;;;1.77;;
25015;SDS011;13029;46.286;7.488;2023-02-04T02:35:28;3.92;;;2.35;;
25015;SDS011;13029;46.286;7.488;2023-02-04T02:37:53;4.82;;;2.38;;
25015;SDS011;13029;46.286;7.488;2023-02-04T02:40:19;4.18;;;2.50;;
25015;SDS011;13029;46.286;7.488;2023-02-04T02:42:44;7.15;;;2.85;;
25015;SDS011;13029;46.286;7.488;2023-02-04T02:45:23;4.10;;;2.42;;
25015;SDS011;13029;46.286;7.488;2023-02-04T02:47:49;4.15;;;2.40;;
25015;SDS011;13029;46.286;7.488;2023-02-04T02:50:16;4.60;;;2.47;;
25015;SDS011;13029;46.286;7.488;2023-02-04T02:52:43;3.65;;;2.63;;
25015;SDS011;13029;46.286;7.488;2023-02-04T02:55:12;5.00;;;3.03;;
25015;SDS011;13029;46.286;7.488;2023-02-04T02:57:43;5.15;;;2.88;;
25015;SDS011;13029;46.286;7.488;2023-02-04T03:00:19;6.07;;;2.90;;
25015;SDS011;13029;46.286;7.488;2023-02-04T03:05:56;3.22;;;2.22;;
25015;SDS011;13029;46.286;7.488;2023-02-04T03:08:24;3.38;;;2.85;;
25015;SDS011;13029;46.286;7.488;2023-02-04T03:10:50;3.90;;;2.65;;
25015;SDS011;13029;46.286;7.488;2023-02-04T03:13:16;3.83;;;2.47;;
25015;SDS011;13029;46.286;7.488;2023-02-04T03:15:41;3.42;;;2.47;;
25015;SDS011;13029;46.286;7.488;2023-02-04T03:18:07;5.55;;;2.80;;
25015;SDS011;13029;46.286;7.488;2023-02-04T03:20:33;6.53;;;2.75;;
25015;SDS011;13029;46.286;7.488;2023-02-04T03:22:59;4.15;;;2.40;;
25015;SDS011;13029;46.286;7.488;2023-02-04T03:25:25;6.15;;;2.83;;
25015;SDS011;13029;46.286;7.488;2023-02-04T03:27:52;4.68;;;2.70;;
25015;SDS011;13029;46.286;7.488;2023-02-04T03:30:18;7.05;;;2.70;;
25015;SDS011;13029;46.286;7.488;2023-02-04T03:32:44;4.72;;;2.97;;
25015;SDS011;13029;46.286;7.488;2023-02-04T03:35:09;4.45;;;2.85;;
25015;SDS011;13029;46.286;7.488;2023-02-04T03:37:34;3.85;;;2.50;;
25015;SDS011;13029;46.286;7.488;2023-02-04T03:40:00;3.35;;;2.55;;
25015;SDS011;13029;46.286;7.488;2023-02-04T03:42:25;5.95;;;2.63;;
25015;SDS011;13029;46.286;7.488;2023-02-04T03:44:50;3.60;;;2.45;;
25015;SDS011;13029;46.286;7.488;2023-02-04T03:47:16;3.92;;;2.80;;
25015;SDS011;13029;46.286;7.488;2023-02-04T03:49:41;5.78;;;2.60;;
25015;SDS011;13029;46.286;7.488;2023-02-04T03:52:06;4.43;;;2.50;;
25015;SDS011;13029;46.286;7.488;2023-02-04T03:54:31;4.07;;;2.95;;
25015;SDS011;13029;46.286;7.488;2023-02-04T03:56:57;3.80;;;2.90;;
25015;SDS011;13029;46.286;7.488;2023-02-04T03:59:22;5.00;;;2.72;;
25015;SDS011;13029;46.286;7.488;2023-02-04T04:01:47;6.10;;;2.58;;
25015;SDS011;13029;46.286;7.488;2023-02-04T04:04:13;4.18;;;2.30;;
25015;SDS011;13029;46.286;7.488;2023-02-04T04:06:38;4.18;;;2.58;;
25015;SDS011;13029;46.286;7.488;2023-02-04T04:09:03;3.65;;;2.38;;
25015;SDS011;13029;46.286;7.488;2023-02-04T04:11:29;5.30;;;2.50;;
25015;SDS011;13029;46.286;7.488;2023-02-04T04:13:55;3.47;;;2.03;;
25015;SDS011;13029;46.286;7.488;2023-02-04T04:16:20;6.32;;;2.63;;
25015;SDS011;13029;46.286;7.488;2023-02-04T04:18:45;4.40;;;2.40;;
25015;SDS011;13029;46.286;7.488;2023-02-04T04:21:11;4.13;;;2.42;;
25015;SDS011;13029;46.286;7.488;2023-02-04T04:23:36;2.65;;;2.10;;
25015;SDS011;13029;46.286;7.488;2023-02-04T04:26:02;4.35;;;2.35;;
25015;SDS011;13029;46.286;7.488;2023-02-04T04:28:27;6.40;;;2.20;;
25015;SDS011;13029;46.286;7.488;2023-02-04T04:30:53;3.90;;;2.60;;
25015;SDS011;13029;46.286;7.488;2023-02-04T04:33:18;5.85;;;2.30;;
25015;SDS011;13029;46.286;7.488;2023-02-04T04:35:43;6.45;;;2.05;;
25015;SDS011;13029;46.286;7.488;2023-02-04T04:38:09;3.35;;;2.08;;
25015;SDS011;13029;46.286;7.488;2023-02-04T04:40:34;5.60;;;2.13;;
25015;SDS011;13029;46.286;7.488;2023-02-04T04:42:59;3.30;;;2.20;;
25015;SDS011;13029;46.286;7.488;2023-02-04T04:45:24;3.40;;;2.30;;
25015;SDS011;13029;46.286;7.488;2023-02-04T04:47:50;6.68;;;2.25;;
25015;SDS011;13029;46.286;7.488;2023-02-04T04:50:15;6.03;;;2.33;;
25015;SDS011;13029;46.286;7.488;2023-02-04T04:52:41;2.38;;;1.73;;
25015;SDS011;13029;46.286;7.488;2023-02-04T04:55:06;3.53;;;2.45;;
25015;SDS011;13029;46.286;7.488;2023-02-04T04:57:32;3.25;;;2.40;;
25015;SDS011;13029;46.286;7.488;2023-02-04T04:59:57;3.88;;;2.47;;
25015;SDS011;13029;46.286;7.488;2023-02-04T05:02:23;4.65;;;2.40;;
25015;SDS011;13029;46.286;7.488;2023-02-04T05:04:48;5.25;;;2.45;;
25015;SDS011;13029;46.286;7.488;2023-02-04T05:07:13;2.72;;;2.00;;
25015;SDS011;13029;46.286;7.488;2023-02-04T05:09:40;5.00;;;2.38;;
25015;SDS011;13029;46.286;7.488;2023-02-04T05:12:05;3.00;;;2.17;;
25015;SDS011;13029;46.286;7.488;2023-02-04T05:14:30;4.32;;;2.17;;
25015;SDS011;13029;46.286;7.488;2023-02-04T05:16:56;4.22;;;2.15;;
25015;SDS011;13029;46.286;7.488;2023-02-04T05:19:21;5.78;;;2.30;;
25015;SDS011;13029;46.286;7.488;2023-02-04T05:21:46;7.80;;;2.35;;
25015;SDS011;13029;46.286;7.488;2023-02-04T05:24:12;10.38;;;2.15;;
25015;SDS011;13029;46.286;7.488;2023-02-04T05:26:37;4.38;;;1.95;;
25015;SDS011;13029;46.286;7.488;2023-02-04T05:29:02;4.85;;;1.90;;
25015;SDS011;13029;46.286;7.488;2023-02-04T05:31:28;2.25;;;1.80;;
25015;SDS011;13029;46.286;7.488;2023-02-04T05:33:53;2.53;;;1.85;;
25015;SDS011;13029;46.286;7.488;2023-02-04T05:36:18;4.70;;;1.90;;
25015;SDS011;13029;46.286;7.488;2023-02-04T05:38:44;3.80;;;2.15;;
25015;SDS011;13029;46.286;7.488;2023-02-04T05:41:09;3.78;;;1.80;;
25015;SDS011;13029;46.286;7.488;2023-02-04T05:43:35;5.13;;;2.13;;
25015;SDS011;13029;46.286;7.488;2023-02-04T05:46:00;2.70;;;1.80;;
25015;SDS011;13029;46.286;7.488;2023-02-04T05:48:26;9.35;;;2.40;;
25015;SDS011;13029;46.286;7.488;2023-02-04T05:50:51;2.55;;;1.63;;
25015;SDS011;13029;46.286;7.488;2023-02-04T05:53:17;6.45;;;2.00;;
25015;SDS011;13029;46.286;7.488;2023-02-04T05:55:42;3.88;;;2.22;;
25015;SDS011;13029;46.286;7.488;2023-02-04T05:58:07;4.07;;;1.80;;
25015;SDS011;13029;46.286;7.488;2023-02-04T06:00:33;3.30;;;2.15;;
25015;SDS011;13029;46.286;7.488;2023-02-04T06:02:58;2.80;;;1.77;;
25015;SDS011;13029;46.286;7.488;2023-02-04T06:05:23;4.43;;;1.80;;
25015;SDS011;13029;46.286;7.488;2023-02-04T06:07:49;2.60;;;1.83;;
25015;SDS011;13029;46.286;7.488;2023-02-04T06:10:14;5.15;;;2.05;;
25015;SDS011;13029;46.286;7.488;2023-02-04T06:12:40;2.47;;;1.92;;
25015;SDS011;13029;46.286;7.488;2023-02-04T06:15:05;4.22;;;1.83;;
25015;SDS011;13029;46.286;7.488;2023-02-04T06:17:31;2.75;;;1.60;;
25015;SDS011;13029;46.286;7.488;2023-02-04T06:19:56;2.58;;;1.55;;
25015;SDS011;13029;46.286;7.488;2023-02-04T06:22:22;3.25;;;1.85;;
25015;SDS011;13029;46.286;7.488;2023-02-04T06:24:48;4.20;;;2.22;;
25015;SDS011;13029;46.286;7.488;2023-02-04T06:27:14;2.55;;;1.90;;
25015;SDS011;13029;46.286;7.488;2023-02-04T06:29:42;2.75;;;1.75;;
25015;SDS011;13029;46.286;7.488;2023-02-04T06:32:07;4.32;;;2.00;;
25015;SDS011;13029;46.286;7.488;2023-02-04T06:34:33;2.67;;;1.50;;
25015;SDS011;13029;46.286;7.488;2023-02-04T06:36:58;5.35;;;2.03;;
25015;SDS011;13029;46.286;7.488;2023-02-04T06:39:23;4.93;;;2.00;;
25015;SDS011;13029;46.286;7.488;2023-02-04T06:41:49;2.75;;;1.52;;
25015;SDS011;13029;46.286;7.488;2023-02-04T06:44:14;2.95;;;2.10;;
25015;SDS011;13029;46.286;7.488;2023-02-04T06:46:39;5.88;;;1.85;;
25015;SDS011;13029;46.286;7.488;2023-02-04T06:49:04;2.67;;;1.90;;
25015;SDS011;13029;46.286;7.488;2023-02-04T06:51:30;3.25;;;1.95;;
25015;SDS011;13029;46.286;7.488;2023-02-04T06:53:55;6.13;;;2.28;;
25015;SDS011;13029;46.286;7.488;2023-02-04T06:56:20;2.92;;;1.90;;
25015;SDS011;13029;46.286;7.488;2023-02-04T06:58:46;2.25;;;1.65;;
25015;SDS011;13029;46.286;7.488;2023-02-04T07:01:11;4.63;;;2.22;;
25015;SDS011;13029;46.286;7.488;2023-02-04T07:03:36;3.63;;;2.30;;
25015;SDS011;13029;46.286;7.488;2023-02-04T07:06:02;4.95;;;2.08;;
25015;SDS011;13029;46.286;7.488;2023-02-04T07:08:27;3.15;;;2.13;;
25015;SDS011;13029;46.286;7.488;2023-02-04T07:10:52;5.57;;;1.90;;
25015;SDS011;13029;46.286;7.488;2023-02-04T07:13:17;3.03;;;1.83;;
25015;SDS011;13029;46.286;7.488;2023-02-04T07:15:43;2.78;;;1.73;;
25015;SDS011;13029;46.286;7.488;2023-02-04T07:18:08;3.85;;;1.90;;
25015;SDS011;13029;46.286;7.488;2023-02-04T07:20:33;2.78;;;1.60;;
25015;SDS011;13029;46.286;7.488;2023-02-04T07:22:59;3.42;;;1.80;;
25015;SDS011;13029;46.286;7.488;2023-02-04T07:25:24;2.50;;;1.95;;
25015;SDS011;13029;46.286;7.488;2023-02-04T07:27:49;5.60;;;2.00;;
25015;SDS011;13029;46.286;7.488;2023-02-04T07:30:15;5.63;;;2.13;;
25015;SDS011;13029;46.286;7.488;2023-02-04T07:32:40;2.10;;;1.67;;
25015;SDS011;13029;46.286;7.488;2023-02-04T07:35:06;3.45;;;2.15;;
25015;SDS011;13029;46.286;7.488;2023-02-04T07:37:31;5.20;;;1.65;;
25015;SDS011;13029;46.286;7.488;2023-02-04T07:39:57;2.33;;;1.60;;
25015;SDS011;13029;46.286;7.488;2023-02-04T07:42:22;3.95;;;2.15;;
25015;SDS011;13029;46.286;7.488;2023-02-04T07:44:47;2.60;;;2.05;;
25015;SDS011;13029;46.286;7.488;2023-02-04T07:47:13;2.45;;;1.98;;
25015;SDS011;13029;46.286;7.488;2023-02-04T07:49:38;4.05;;;2.40;;
25015;SDS011;13029;46.286;7.488;2023-02-04T07:52:04;3.70;;;2.30;;
25015;SDS011;13029;46.286;7.488;2023-02-04T07:54:29;1.70;;;1.48;;
25015;SDS011;13029;46.286;7.488;2023-02-04T07:56:54;3.22;;;1.80;;
25015;SDS011;13029;46.286;7.488;2023-02-04T07:59:20;3.33;;;1.67;;
25015;SDS011;13029;46.286;7.488;2023-02-04T08:01:45;3.58;;;1.70;;
25015;SDS011;13029;46.286;7.488;2023-02-04T08:04:12;2.97;;;1.83;;
25015;SDS011;13029;46.286;7.488;2023-02-04T08:06:37;4.18;;;1.98;;
25015;SDS011;13029;46.286;7.488;2023-02-04T08:09:02;2.95;;;1.98;;
25015;SDS011;13029;46.286;7.488;2023-02-04T08:11:28;2.85;;;1.83;;
25015;SDS011;13029;46.286;7.488;2023-02-04T08:13:53;3.72;;;1.92;;
25015;SDS011;13029;46.286;7.488;2023-02-04T08:16:18;2.47;;;1.67;;
25015;SDS011;13029;46.286;7.488;2023-02-04T08:18:43;2.15;;;1.80;;
25015;SDS011;13029;46.286;7.488;2023-02-04T08:21:09;5.57;;;2.08;;
25015;SDS011;13029;46.286;7.488;2023-02-04T08:23:34;2.65;;;1.70;;
25015;SDS011;13029;46.286;7.488;2023-02-04T08:26:00;4.72;;;1.95;;
25015;SDS011;13029;46.286;7.488;2023-02-04T08:28:25;2.85;;;1.80;;
25015;SDS011;13029;46.286;7.488;2023-02-04T08:30:50;1.77;;;1.55;;
25015;SDS011;13029;46.286;7.488;2023-02-04T08:33:16;6.45;;;2.15;;
25015;SDS011;13029;46.286;7.488;2023-02-04T08:35:41;5.57;;;1.92;;
25015;SDS011;13029;46.286;7.488;2023-02-04T08:38:07;1.92;;;1.50;;
25015;SDS011;13029;46.286;7.488;2023-02-04T08:40:32;3.90;;;1.92;;
25015;SDS011;13029;46.286;7.488;2023-02-04T08:42:57;3.95;;;2.10;;
25015;SDS011;13029;46.286;7.488;2023-02-04T08:45:22;2.45;;;2.00;;
25015;SDS011;13029;46.286;7.488;2023-02-04T08:47:48;2.42;;;1.58;;
25015;SDS011;13029;46.286;7.488;2023-02-04T08:50:13;3.13;;;1.73;;
25015;SDS011;13029;46.286;7.488;2023-02-04T08:52:38;5.30;;;2.08;;
25015;SDS011;13029;46.286;7.488;2023-02-04T08:55:04;2.38;;;1.70;;
25015;SDS011;13029;46.286;7.488;2023-02-04T08:57:29;4.10;;;2.20;;
25015;SDS011;13029;46.286;7.488;2023-02-04T08:59:55;2.47;;;1.73;;
25015;SDS011;13029;46.286;7.488;2023-02-04T09:02:20;2.20;;;1.52;;
25015;SDS011;13029;46.286;7.488;2023-02-04T09:04:45;2.45;;;1.60;;
25015;SDS011;13029;46.286;7.488;2023-02-04T09:07:11;3.55;;;2.10;;
25015;SDS011;13029;46.286;7.488;2023-02-04T09:09:36;2.88;;;1.77;;
25015;SDS011;13029;46.286;7.488;2023-02-04T09:12:01;7.45;;;2.13;;
25015;SDS011;13029;46.286;7.488;2023-02-04T09:14:27;4.40;;;1.63;;
25015;SDS011;13029;46.286;7.488;2023-02-04T09:16:52;5.30;;;2.30;;
25015;SDS011;13029;46.286;7.488;2023-02-04T09:19:18;2.55;;;1.98;;
25015;SDS011;13029;46.286;7.488;2023-02-04T09:21:49;2.60;;;1.77;;
25015;SDS011;13029;46.286;7.488;2023-02-04T09:24:14;6.97;;;2.20;;
25015;SDS011;13029;46.286;7.488;2023-02-04T09:26:39;2.80;;;2.10;;
25015;SDS011;13029;46.286;7.488;2023-02-04T09:29:05;2.95;;;1.98;;
25015;SDS011;13029;46.286;7.488;2023-02-04T09:31:30;4.65;;;1.67;;
25015;SDS011;13029;46.286;7.488;2023-02-04T09:33:55;4.70;;;1.67;;
25015;SDS011;13029;46.286;7.488;2023-02-04T09:36:21;3.08;;;1.80;;
25015;SDS011;13029;46.286;7.488;2023-02-04T09:38:46;3.00;;;2.10;;
25015;SDS011;13029;46.286;7.488;2023-02-04T09:41:11;2.22;;;1.80;;
25015;SDS011;13029;46.286;7.488;2023-02-04T09:43:38;3.90;;;1.90;;
25015;SDS011;13029;46.286;7.488;2023-02-04T09:46:07;2.10;;;1.80;;
25015;SDS011;13029;46.286;7.488;2023-02-04T09:48:38;2.63;;;2.00;;
25015;SDS011;13029;46.286;7.488;2023-02-04T09:51:04;2.47;;;1.50;;
25015;SDS011;13029;46.286;7.488;2023-02-04T09:53:31;4.45;;;2.28;;
25015;SDS011;13029;46.286;7.488;2023-02-04T09:55:56;2.65;;;1.80;;
25015;SDS011;13029;46.286;7.488;2023-02-04T09:58:22;3.90;;;1.98;;
25015;SDS011;13029;46.286;7.488;2023-02-04T10:00:55;5.00;;;1.60;;
25015;SDS011;13029;46.286;7.488;2023-02-04T10:03:23;3.55;;;1.90;;
25015;SDS011;13029;46.286;7.488;2023-02-04T10:05:48;2.03;;;1.75;;
25015;SDS011;13029;46.286;7.488;2023-02-04T10:08:18;4.80;;;2.45;;
25015;SDS011;13029;46.286;7.488;2023-02-04T10:10:45;2.33;;;1.83;;
25015;SDS011;13029;46.286;7.488;2023-02-04T10:13:19;1.70;;;1.60;;
25015;SDS011;13029;46.286;7.488;2023-02-04T10:15:46;5.53;;;2.10;;
25015;SDS011;13029;46.286;7.488;2023-02-04T10:18:22;3.97;;;1.80;;
25015;SDS011;13029;46.286;7.488;2023-02-04T10:20:51;2.15;;;1.60;;
25015;SDS011;13029;46.286;7.488;2023-02-04T10:23:19;1.98;;;1.70;;
25015;SDS011;13029;46.286;7.488;2023-02-04T10:25:45;2.05;;;1.52;;
25015;SDS011;13029;46.286;7.488;2023-02-04T10:28:10;3.13;;;1.40;;
25015;SDS011;13029;46.286;7.488;2023-02-04T10:30:40;2.47;;;1.40;;
25015;SDS011;13029;46.286;7.488;2023-02-04T10:33:11;1.33;;;1.23;;
25015;SDS011;13029;46.286;7.488;2023-02-04T10:35:46;2.97;;;1.70;;
25015;SDS011;13029;46.286;7.488;2023-02-04T10:38:14;2.70;;;1.70;;
25015;SDS011;13029;46.286;7.488;2023-02-04T10:40:39;3.53;;;1.55;;
25015;SDS011;13029;46.286;7.488;2023-02-04T10:43:16;6.18;;;1.90;;
25015;SDS011;13029;46.286;7.488;2023-02-04T10:45:44;2.97;;;1.60;;
25015;SDS011;13029;46.286;7.488;2023-02-04T10:48:16;3.38;;;1.70;;
25015;SDS011;13029;46.286;7.488;2023-02-04T10:50:42;1.83;;;1.60;;
25015;SDS011;13029;46.286;7.488;2023-02-04T10:53:08;3.00;;;1.60;;
25015;SDS011;13029;46.286;7.488;2023-02-04T10:55:53;2.72;;;1.50;;
25015;SDS011;13029;46.286;7.488;2023-02-04T10:58:19;3.17;;;1.77;;
25015;SDS011;13029;46.286;7.488;2023-02-04T11:00:48;2.78;;;1.90;;
25015;SDS011;13029;46.286;7.488;2023-02-04T11:03:29;1.70;;;1.42;;
25015;SDS011;13029;46.286;7.488;2023-02-04T11:05:56;2.30;;;1.63;;
25015;SDS011;13029;46.286;7.488;2023-02-04T11:08:26;7.93;;;1.60;;
25015;SDS011;13029;46.286;7.488;2023-02-04T11:10:57;3.15;;;1.92;;
25015;SDS011;13029;46.286;7.488;2023-02-04T11:13:38;2.35;;;1.70;;
25015;SDS011;13029;46.286;7.488;2023-02-04T11:16:07;3.20;;;1.77;;
25015;SDS011;13029;46.286;7.488;2023-02-04T11:18:48;2.08;;;1.50;;
25015;SDS011;13029;46.286;7.488;2023-02-04T11:21:28;3.67;;;2.22;;
25015;SDS011;13029;46.286;7.488;2023-02-04T11:26:32;2.85;;;2.15;;
25015;SDS011;13029;46.286;7.488;2023-02-04T11:36:32;3.60;;;2.10;;
25015;SDS011;13029;46.286;7.488;2023-02-04T11:39:05;4.88;;;1.85;;
25015;SDS011;13029;46.286;7.488;2023-02-04T11:41:31;3.35;;;1.40;;
25015;SDS011;13029;46.286;7.488;2023-02-04T11:43:57;2.22;;;1.80;;
25015;SDS011;13029;46.286;7.488;2023-02-04T11:46:23;4.00;;;1.63;;
25015;SDS011;13029;46.286;7.488;2023-02-04T11:48:53;5.40;;;1.92;;
25015;SDS011;13029;46.286;7.488;2023-02-04T11:51:22;9.05;;;1.75;;
25015;SDS011;13029;46.286;7.488;2023-02-04T11:53:52;5.35;;;1.60;;
25015;SDS011;13029;46.286;7.488;2023-02-04T11:56:20;6.10;;;1.60;;
25015;SDS011;13029;46.286;7.488;2023-02-04T11:58:47;1.77;;;1.20;;
25015;SDS011;13029;46.286;7.488;2023-02-04T12:01:16;3.72;;;1.38;;
25015;SDS011;13029;46.286;7.488;2023-02-04T12:03:46;2.97;;;1.15;;
25015;SDS011;13029;46.286;7.488;2023-02-04T12:08:48;2.25;;;1.52;;
25015;SDS011;13029;46.286;7.488;2023-02-04T12:11:23;4.00;;;2.00;;
25015;SDS011;13029;46.286;7.488;2023-02-04T12:13:55;3.05;;;1.50;;
25015;SDS011;13029;46.286;7.488;2023-02-04T12:16:23;2.22;;;1.50;;
25015;SDS011;13029;46.286;7.488;2023-02-04T12:18:49;4.68;;;1.88;;
25015;SDS011;13029;46.286;7.488;2023-02-04T12:21:15;2.92;;;1.60;;
25015;SDS011;13029;46.286;7.488;2023-02-04T12:23:42;3.08;;;1.60;;
25015;SDS011;13029;46.286;7.488;2023-02-04T12:26:08;5.88;;;1.52;;
25015;SDS011;13029;46.286;7.488;2023-02-04T12:28:33;4.28;;;1.60;;
25015;SDS011;13029;46.286;7.488;2023-02-04T12:30:59;2.45;;;1.52;;
25015;SDS011;13029;46.286;7.488;2023-02-04T12:33:24;4.05;;;1.92;;
25015;SDS011;13029;46.286;7.488;2023-02-04T12:35:50;2.05;;;1.40;;
25015;SDS011;13029;46.286;7.488;2023-02-04T12:38:15;3.30;;;1.70;;
25015;SDS011;13029;46.286;7.488;2023-02-04T12:40:40;1.58;;;1.40;;
25015;SDS011;13029;46.286;7.488;2023-02-04T12:43:06;4.25;;;1.70;;
25015;SDS011;13029;46.286;7.488;2023-02-04T12:45:31;2.10;;;1.67;;
25015;SDS011;13029;46.286;7.488;2023-02-04T12:47:56;2.13;;;1.30;;
25015;SDS011;13029;46.286;7.488;2023-02-04T12:50:22;2.83;;;1.42;;
25015;SDS011;13029;46.286;7.488;2023-02-04T12:52:57;4.47;;;1.38;;
25015;SDS011;13029;46.286;7.488;2023-02-04T12:55:24;1.70;;;1.30;;
25015;SDS011;13029;46.286;7.488;2023-02-04T12:57:51;2.08;;;1.30;;
25015;SDS011;13029;46.286;7.488;2023-02-04T13:00:17;2.90;;;1.25;;
25015;SDS011;13029;46.286;7.488;2023-02-04T13:02:44;3.20;;;1.33;;
25015;SDS011;13029;46.286;7.488;2023-02-04T13:05:10;2.75;;;1.60;;
25015;SDS011;13029;46.286;7.488;2023-02-04T13:07:36;4.10;;;1.67;;
25015;SDS011;13029;46.286;7.488;2023-02-04T13:10:02;1.67;;;1.40;;
25015;SDS011;13029;46.286;7.488;2023-02-04T13:12:27;1.67;;;1.02;;
25015;SDS011;13029;46.286;7.488;2023-02-04T13:14:53;1.45;;;1.30;;
25015;SDS011;13029;46.286;7.488;2023-02-04T13:17:18;3.42;;;1.60;;
25015;SDS011;13029;46.286;7.488;2023-02-04T13:19:43;1.85;;;1.40;;
25015;SDS011;13029;46.286;7.488;2023-02-04T13:22:09;2.67;;;1.40;;
25015;SDS011;13029;46.286;7.488;2023-02-04T13:24:34;4.78;;;1.63;;
25015;SDS011;13029;46.286;7.488;2023-02-04T13:26:59;2.97;;;1.70;;
25015;SDS011;13029;46.286;7.488;2023-02-04T13:29:25;4.30;;;1.38;;
25015;SDS011;13029;46.286;7.488;2023-02-04T13:31:50;4.13;;;1.58;;
25015;SDS011;13029;46.286;7.488;2023-02-04T13:34:16;5.20;;;1.50;;
25015;SDS011;13029;46.286;7.488;2023-02-04T13:36:41;2.15;;;1.40;;
25015;SDS011;13029;46.286;7.488;2023-02-04T13:39:08;2.42;;;1.50;;
25015;SDS011;13029;46.286;7.488;2023-02-04T13:41:33;2.10;;;1.38;;
25015;SDS011;13029;46.286;7.488;2023-02-04T13:43:59;2.03;;;1.52;;
25015;SDS011;13029;46.286;7.488;2023-02-04T13:46:25;2.22;;;1.60;;
25015;SDS011;13029;46.286;7.488;2023-02-04T13:48:50;3.20;;;1.52;;
25015;SDS011;13029;46.286;7.488;2023-02-04T13:51:15;2.95;;;1.58;;
25015;SDS011;13029;46.286;7.488;2023-02-04T13:53:41;2.30;;;1.50;;
25015;SDS011;13029;46.286;7.488;2023-02-04T13:56:06;2.17;;;1.77;;
25015;SDS011;13029;46.286;7.488;2023-02-04T13:58:32;2.28;;;1.40;;
25015;SDS011;13029;46.286;7.488;2023-02-04T14:00:57;5.05;;;1.50;;
25015;SDS011;13029;46.286;7.488;2023-02-04T14:03:26;3.10;;;1.35;;
25015;SDS011;13029;46.286;7.488;2023-02-04T14:05:52;3.22;;;1.38;;
25015;SDS011;13029;46.286;7.488;2023-02-04T14:08:18;3.25;;;1.50;;
25015;SDS011;13029;46.286;7.488;2023-02-04T14:10:44;3.25;;;1.10;;
25015;SDS011;13029;46.286;7.488;2023-02-04T14:13:09;3.38;;;1.50;;
25015;SDS011;13029;46.286;7.488;2023-02-04T14:15:34;2.45;;;1.23;;
25015;SDS011;13029;46.286;7.488;2023-02-04T14:18:01;1.50;;;1.02;;
25015;SDS011;13029;46.286;7.488;2023-02-04T14:20:28;1.38;;;1.13;;
25015;SDS011;13029;46.286;7.488;2023-02-04T14:22:53;2.38;;;1.05;;
25015;SDS011;13029;46.286;7.488;2023-02-04T14:25:19;3.80;;;1.42;;
25015;SDS011;13029;46.286;7.488;2023-02-04T14:27:44;2.33;;;1.27;;
25015;SDS011;13029;46.286;7.488;2023-02-04T14:30:14;1.98;;;1.48;;
25015;SDS011;13029;46.286;7.488;2023-02-04T14:32:44;2.90;;;1.40;;
25015;SDS011;13029;46.286;7.488;2023-02-04T14:35:09;2.47;;;1.65;;
25015;SDS011;13029;46.286;7.488;2023-02-04T14:37:34;3.22;;;1.13;;
25015;SDS011;13029;46.286;7.488;2023-02-04T14:40:00;2.28;;;1.30;;
25015;SDS011;13029;46.286;7.488;2023-02-04T14:42:26;3.42;;;1.30;;
25015;SDS011;13029;46.286;7.488;2023-02-04T14:44:51;1.90;;;1.45;;
25015;SDS011;13029;46.286;7.488;2023-02-04T14:47:17;1.55;;;1.33;;
25015;SDS011;13029;46.286;7.488;2023-02-04T14:49:42;2.75;;;1.45;;
25015;SDS011;13029;46.286;7.488;2023-02-04T14:52:07;2.00;;;1.40;;
25015;SDS011;13029;46.286;7.488;2023-02-04T14:54:35;6.40;;;1.50;;
25015;SDS011;13029;46.286;7.488;2023-02-04T14:57:00;3.65;;;1.30;;
25015;SDS011;13029;46.286;7.488;2023-02-04T14:59:25;3.83;;;1.65;;
25015;SDS011;13029;46.286;7.488;2023-02-04T15:01:51;1.55;;;1.30;;